Pagrindinis puslapis
METAR-TAF:

METAR-TAF

Oro uostai :

Bizerte, Tunisas

platuma: 37-15N, ilguma: 009-48E, Aukštis: 5 m

Dabartinis oras

Ataskaita buvo paskelbta 1 valandą ir 11 minutes, ne 19:00 UTC
Vėjas 7 kt iš Rytų/Šiaurės Rytų
Temperatūra 13°C
Drėgmė 82%
Slėgis 1021 hPa
Matomumas 10 km arba daugiau
nėra debesų žemiau 1500 m ir nėra kamuolinių lietaus debesų

METAR: DTTB 091900Z 06007KT CAVOK 13/10 Q1021

Laikas: 21:11 (20:11 UTC)

Prognozė

Ataskaita buvo paskelbta 2 valandos ir 11 minutes, ne 18:00 UTC
Prognozė galioja nuo 09 metu 19 UTC su 10 metu 04 UTC
Vėjas 10 kt iš Rytų/Šiaurės Rytų
Matomumas 10 km arba daugiau
nėra debesų žemiau 1500 m ir nėra kamuolinių lietaus debesų

TAF: DTTB 091800Z 0919/1004 07010KT CAVOK

Orai ataskaitas ir orų prognozės (METAR, TAF).

turimą stotys yra geltonos ir raudonos taškus žemėlapyje.

Perkelti pele per norėdami pamatyti stoties vardą.

Tada spustelėkite, norėdami matyti oro stebėjimo ir prognozės.

Norėdami pakeisti žemėlapį: spustelėkite ant žalios mygtukų su juodo kryžiaus žemyn,; žalią mygtuką su brūkšneliu, jei norite nutolinti; arba žalių rodyklių gretimoms žemėlapius.


METAR-TAF: